createdAt,value
2018-03-29T00:00:30.694Z,17.99
2018-03-29T00:01:30.773Z,18.09
2018-03-29T00:02:30.695Z,18.10
2018-03-29T00:03:31.031Z,18.09
2018-03-29T00:04:30.808Z,18.04
2018-03-29T00:05:30.786Z,17.99
2018-03-29T00:06:30.807Z,17.92
2018-03-29T00:07:30.841Z,18.09
2018-03-29T00:08:30.871Z,17.94
2018-03-29T00:09:30.913Z,17.99
2018-03-29T00:10:31.225Z,18.02
2018-03-29T00:11:30.948Z,18.05
2018-03-29T00:12:30.982Z,18.07
2018-03-29T00:13:31.006Z,17.98
2018-03-29T00:14:31.032Z,18.09
2018-03-29T00:15:31.072Z,17.99
2018-03-29T00:16:31.126Z,17.99
2018-03-29T00:17:31.373Z,18.10
2018-03-29T00:18:31.152Z,17.99
2018-03-29T00:19:31.177Z,18.02
2018-03-29T00:20:31.248Z,17.99
2018-03-29T00:21:31.280Z,18.02
2018-03-29T00:22:31.264Z,17.98
2018-03-29T00:23:31.294Z,18.09
2018-03-29T00:24:31.617Z,18.05
2018-03-29T00:25:31.352Z,18.10
2018-03-29T00:26:31.372Z,18.05
2018-03-29T00:27:31.406Z,17.99
2018-03-29T00:28:31.516Z,17.98
2018-03-29T00:29:31.461Z,17.98
2018-03-29T00:30:31.489Z,17.98
2018-03-29T00:31:31.817Z,18.05
2018-03-29T00:32:31.556Z,18.07
2018-03-29T00:33:31.632Z,17.96
2018-03-29T00:34:31.718Z,18.04
2018-03-29T00:35:31.670Z,18.09
2018-03-29T00:36:31.656Z,17.99
2018-03-29T00:37:31.681Z,18.09
2018-03-29T00:38:32.011Z,18.09
2018-03-29T00:39:31.741Z,17.96
2018-03-29T00:40:31.794Z,18.02
2018-03-29T00:41:31.798Z,18.04
2018-03-29T00:42:31.822Z,18.09
2018-03-29T00:43:31.851Z,18.10
2018-03-29T00:44:31.882Z,17.95
2018-03-29T00:45:32.259Z,18.07
2018-03-29T00:46:31.933Z,17.96
2018-03-29T00:47:31.973Z,18.04
2018-03-29T00:48:32.029Z,18.05
2018-03-29T00:49:32.018Z,17.99
2018-03-29T00:50:32.078Z,18.02
2018-03-29T00:51:32.172Z,17.98
2018-03-29T00:52:32.427Z,17.94
2018-03-29T00:53:32.250Z,18.04
2018-03-29T00:54:32.161Z,18.04
2018-03-29T00:55:32.189Z,17.95
2018-03-29T00:56:32.216Z,18.01
2018-03-29T00:57:32.294Z,17.99
2018-03-29T00:58:32.277Z,18.01
2018-03-29T00:59:32.564Z,18.02
2018-03-29T01:00:32.340Z,17.98
2018-03-29T01:01:32.357Z,18.02
2018-03-29T01:02:32.386Z,18.01
2018-03-29T01:03:32.463Z,18.01
2018-03-29T01:04:32.449Z,18.01
2018-03-29T01:05:32.476Z,17.96
2018-03-29T01:06:32.862Z,18.01
2018-03-29T01:07:32.528Z,17.96
2018-03-29T01:08:32.554Z,17.95
2018-03-29T01:09:32.584Z,17.98
2018-03-29T01:10:32.662Z,18.02
2018-03-29T01:11:32.639Z,18.02
2018-03-29T01:12:32.976Z,17.99
2018-03-29T01:13:32.708Z,18.01
2018-03-29T01:14:32.726Z,17.96
2018-03-29T01:15:32.822Z,17.98
2018-03-29T01:16:32.810Z,18.04
2018-03-29T01:17:32.809Z,17.94
2018-03-29T01:18:33.089Z,18.04
2018-03-29T01:19:32.868Z,17.99
2018-03-29T01:20:32.895Z,17.99
2018-03-29T01:21:32.927Z,18.01
2018-03-29T01:22:32.965Z,17.95
2018-03-29T01:23:32.977Z,17.99
2018-03-29T01:24:33.257Z,17.96
2018-03-29T01:25:33.035Z,17.99
2018-03-29T01:26:33.066Z,17.95
2018-03-29T01:27:33.097Z,17.96
2018-03-29T01:28:33.122Z,17.99
2018-03-29T01:29:33.146Z,17.91
2018-03-29T01:30:33.501Z,17.95
2018-03-29T01:31:33.207Z,18.01
2018-03-29T01:32:33.233Z,18.01
2018-03-29T01:33:33.258Z,17.96
2018-03-29T01:34:33.296Z,17.95
2018-03-29T01:35:33.370Z,17.99
2018-03-29T01:36:33.599Z,17.96
2018-03-29T01:37:33.414Z,18.02
2018-03-29T01:38:33.417Z,17.96
2018-03-29T01:39:33.431Z,17.95
2018-03-29T01:40:33.490Z,18.05
2018-03-29T01:41:33.502Z,17.95
2018-03-29T01:42:33.772Z,18.02
2018-03-29T01:43:33.542Z,17.98
2018-03-29T01:44:33.673Z,18.01
2018-03-29T01:45:33.599Z,18.02
2018-03-29T01:46:33.635Z,17.95
2018-03-29T01:47:33.694Z,17.99
2018-03-29T01:48:33.982Z,17.96
2018-03-29T01:49:33.766Z,18.01
2018-03-29T01:50:33.739Z,17.95
2018-03-29T01:51:33.769Z,18.01
2018-03-29T01:52:33.801Z,17.96
2018-03-29T01:53:33.822Z,18.02
2018-03-29T01:54:34.166Z,17.95
2018-03-29T01:55:33.879Z,18.01
2018-03-29T01:56:33.907Z,17.99
2018-03-29T01:57:33.937Z,17.98
2018-03-29T01:58:33.976Z,17.96
2018-03-29T01:59:34.000Z,17.95
2018-03-29T02:00:34.339Z,17.96
2018-03-29T02:01:34.052Z,18.01
2018-03-29T02:02:34.075Z,17.98
2018-03-29T02:03:34.130Z,17.99
2018-03-29T02:04:34.140Z,18.01
2018-03-29T02:05:34.171Z,18.02
2018-03-29T02:06:34.501Z,18.01
2018-03-29T02:07:34.224Z,17.95
2018-03-29T02:08:34.330Z,17.96
2018-03-29T02:09:34.282Z,17.98
2018-03-29T02:10:34.316Z,17.95
2018-03-29T02:11:34.329Z,18.01
2018-03-29T02:12:34.672Z,17.98
2018-03-29T02:13:34.390Z,18.02
2018-03-29T02:14:34.443Z,17.99
2018-03-29T02:15:34.451Z,18.02
2018-03-29T02:16:34.495Z,18.02
2018-03-29T02:17:34.503Z,17.98
2018-03-29T02:18:34.890Z,18.01
2018-03-29T02:19:34.559Z,17.99
2018-03-29T02:20:34.587Z,17.99
2018-03-29T02:21:34.621Z,17.94
2018-03-29T02:22:34.654Z,17.96
2018-03-29T02:23:34.765Z,17.96
2018-03-29T02:24:34.698Z,17.94
2018-03-29T02:25:35.046Z,17.96
2018-03-29T02:26:34.797Z,17.95
2018-03-29T02:27:34.796Z,17.98
2018-03-29T02:28:34.809Z,17.91
2018-03-29T02:29:34.956Z,17.94
2018-03-29T02:30:34.870Z,17.91
2018-03-29T02:31:34.957Z,17.95
2018-03-29T02:32:35.223Z,17.96
2018-03-29T02:33:35.066Z,17.99
2018-03-29T02:34:35.024Z,17.95
2018-03-29T02:35:35.010Z,17.94
2018-03-29T02:36:35.088Z,17.98
2018-03-29T02:37:35.064Z,17.99
2018-03-29T02:38:35.103Z,17.99
2018-03-29T02:39:35.372Z,18.02
2018-03-29T02:40:35.147Z,18.02
2018-03-29T02:41:35.242Z,17.96
2018-03-29T02:42:35.229Z,17.96
2018-03-29T02:43:35.233Z,18.01
2018-03-29T02:44:35.269Z,17.92
2018-03-29T02:45:35.304Z,17.98
2018-03-29T02:46:35.623Z,17.99
2018-03-29T02:47:35.411Z,18.02
2018-03-29T02:48:35.424Z,17.94
2018-03-29T02:49:35.405Z,17.95
2018-03-29T02:50:35.431Z,17.96
2018-03-29T02:51:35.457Z,17.96
2018-03-29T02:52:35.488Z,17.98
2018-03-29T02:53:35.872Z,17.95
2018-03-29T02:54:35.543Z,17.99
2018-03-29T02:55:35.600Z,17.99
2018-03-29T02:56:35.603Z,18.02
2018-03-29T02:57:35.634Z,17.95
2018-03-29T02:58:35.774Z,17.92
2018-03-29T02:59:35.753Z,18.01
2018-03-29T03:00:35.964Z,17.99
2018-03-29T03:01:35.806Z,17.95
2018-03-29T03:02:35.769Z,18.02
2018-03-29T03:03:35.798Z,17.96
2018-03-29T03:04:35.831Z,17.95
2018-03-29T03:05:35.857Z,17.94
2018-03-29T03:06:35.885Z,17.99
2018-03-29T03:07:36.214Z,17.96
2018-03-29T03:08:35.939Z,18.01
2018-03-29T03:09:35.971Z,18.01
2018-03-29T03:10:35.999Z,18.02
2018-03-29T03:11:36.035Z,18.01
2018-03-29T03:12:36.052Z,17.94
2018-03-29T03:13:36.079Z,17.99
2018-03-29T03:14:36.458Z,18.04
2018-03-29T03:15:36.179Z,17.98
2018-03-29T03:16:36.176Z,18.01
2018-03-29T03:17:36.204Z,17.98
2018-03-29T03:18:36.221Z,17.95
2018-03-29T03:19:36.298Z,17.96
2018-03-29T03:20:36.278Z,18.01
2018-03-29T03:21:36.558Z,17.95
2018-03-29T03:22:36.336Z,17.96
2018-03-29T03:23:36.411Z,17.96
2018-03-29T03:24:36.396Z,17.98
2018-03-29T03:25:36.425Z,17.99
2018-03-29T03:26:36.448Z,17.99
2018-03-29T03:27:36.484Z,17.96
2018-03-29T03:28:36.758Z,18.02
2018-03-29T03:29:36.535Z,17.99
2018-03-29T03:30:36.570Z,17.95
2018-03-29T03:31:36.594Z,17.95
2018-03-29T03:32:36.621Z,18.01
2018-03-29T03:33:36.699Z,17.98
2018-03-29T03:34:36.741Z,18.01
2018-03-29T03:35:37.000Z,17.99
2018-03-29T03:36:36.743Z,17.96
2018-03-29T03:37:36.760Z,17.94
2018-03-29T03:38:36.840Z,18.01
2018-03-29T03:39:36.818Z,18.01
2018-03-29T03:40:36.846Z,17.98
2018-03-29T03:41:37.173Z,17.95
2018-03-29T03:42:36.920Z,17.98
2018-03-29T03:43:36.983Z,18.02
2018-03-29T03:44:36.961Z,17.98
2018-03-29T03:45:37.026Z,17.96
2018-03-29T03:46:37.026Z,18.01
2018-03-29T03:47:37.351Z,18.01
2018-03-29T03:48:37.067Z,18.04
2018-03-29T03:49:37.099Z,17.98
2018-03-29T03:50:37.194Z,17.98
2018-03-29T03:51:37.163Z,18.01
2018-03-29T03:52:37.221Z,17.98
2018-03-29T03:53:37.513Z,17.99
2018-03-29T03:54:37.291Z,17.95
2018-03-29T03:55:37.299Z,17.99
2018-03-29T03:56:37.325Z,18.02
2018-03-29T03:57:37.327Z,17.96
2018-03-29T03:58:37.382Z,17.96
2018-03-29T03:59:37.705Z,17.99
2018-03-29T04:00:37.482Z,18.02
2018-03-29T04:01:37.447Z,18.04
2018-03-29T04:02:37.591Z,17.96
2018-03-29T04:03:37.500Z,18.01
2018-03-29T04:04:37.531Z,17.96
2018-03-29T04:05:37.803Z,18.04
2018-03-29T04:06:37.634Z,17.95
2018-03-29T04:07:37.663Z,18.05
2018-03-29T04:08:37.636Z,17.95
2018-03-29T04:09:37.673Z,17.98
2018-03-29T04:10:37.693Z,18.02
2018-03-29T04:11:37.978Z,17.94
2018-03-29T04:12:37.751Z,17.95
2018-03-29T04:13:37.795Z,17.96
2018-03-29T04:14:37.809Z,18.04
2018-03-29T04:15:37.834Z,17.99
2018-03-29T04:16:37.862Z,18.02
2018-03-29T04:17:38.292Z,18.01
2018-03-29T04:18:37.947Z,17.99
2018-03-29T04:19:37.954Z,18.07
2018-03-29T04:20:37.988Z,17.98
2018-03-29T04:21:38.015Z,18.04
2018-03-29T04:22:38.031Z,18.10
2018-03-29T04:23:38.364Z,18.04
2018-03-29T04:24:38.095Z,17.98
2018-03-29T04:25:38.149Z,18.01
2018-03-29T04:26:38.145Z,17.96
2018-03-29T04:27:38.176Z,17.98
2018-03-29T04:28:38.205Z,17.99
2018-03-29T04:29:38.536Z,18.01
2018-03-29T04:30:38.260Z,18.01
2018-03-29T04:31:38.297Z,17.99
2018-03-29T04:32:38.325Z,18.02
2018-03-29T04:33:38.344Z,17.94
2018-03-29T04:34:38.386Z,18.01
2018-03-29T04:35:38.765Z,18.01
2018-03-29T04:36:38.455Z,18.04
2018-03-29T04:37:38.458Z,17.98
2018-03-29T04:38:38.485Z,17.96
2018-03-29T04:39:38.519Z,18.01
2018-03-29T04:40:38.619Z,17.98
2018-03-29T04:41:38.830Z,17.98
2018-03-29T04:42:38.610Z,17.95
2018-03-29T04:43:38.648Z,17.99
2018-03-29T04:44:38.689Z,17.95
2018-03-29T04:45:38.747Z,18.01
2018-03-29T04:46:38.729Z,17.98
2018-03-29T04:47:39.043Z,18.10
2018-03-29T04:48:38.795Z,18.02
2018-03-29T04:49:38.809Z,18.02
2018-03-29T04:50:38.825Z,18.05
2018-03-29T04:51:38.853Z,17.99
2018-03-29T04:52:38.883Z,17.98
2018-03-29T04:53:38.969Z,17.98
2018-03-29T04:54:39.287Z,17.95
2018-03-29T04:55:38.967Z,17.95
2018-03-29T04:56:39.006Z,18.02
2018-03-29T04:57:39.091Z,18.02
2018-03-29T04:58:39.058Z,18.04
2018-03-29T04:59:39.083Z,17.95
2018-03-29T05:00:39.131Z,18.04
2018-03-29T05:01:39.390Z,17.94
2018-03-29T05:02:39.170Z,18.09
2018-03-29T05:03:39.193Z,17.99
2018-03-29T05:04:39.262Z,18.04
2018-03-29T05:05:39.262Z,17.96
2018-03-29T05:06:39.287Z,18.09
2018-03-29T05:07:39.342Z,18.05
2018-03-29T05:08:39.666Z,18.04
2018-03-29T05:09:39.362Z,18.09
2018-03-29T05:10:39.415Z,18.02
2018-03-29T05:11:39.474Z,18.09
2018-03-29T05:12:39.452Z,18.07
2018-03-29T05:13:39.483Z,18.07
2018-03-29T05:14:39.548Z,18.13
2018-03-29T05:15:39.807Z,18.05
2018-03-29T05:16:39.630Z,18.10
2018-03-29T05:17:39.597Z,18.07
2018-03-29T05:18:39.700Z,18.11
2018-03-29T05:19:39.666Z,18.05
2018-03-29T05:20:39.727Z,18.09
2018-03-29T05:21:39.716Z,18.05
2018-03-29T05:22:40.041Z,18.07
2018-03-29T05:23:39.778Z,18.10
2018-03-29T05:24:39.797Z,17.96
2018-03-29T05:25:39.826Z,18.07
2018-03-29T05:26:39.868Z,18.10
2018-03-29T05:27:39.900Z,18.09
2018-03-29T05:28:39.914Z,18.04
2018-03-29T05:29:40.190Z,18.07
2018-03-29T05:30:39.964Z,18.02
2018-03-29T05:31:39.995Z,18.10
2018-03-29T05:32:40.017Z,18.09
2018-03-29T05:33:40.059Z,18.05
2018-03-29T05:34:40.081Z,18.14
2018-03-29T05:35:40.127Z,18.05
2018-03-29T05:36:40.403Z,18.09
2018-03-29T05:37:40.209Z,18.05
2018-03-29T05:38:40.192Z,18.09
2018-03-29T05:39:40.217Z,18.10
2018-03-29T05:40:40.317Z,18.09
2018-03-29T05:41:40.319Z,18.05
2018-03-29T05:42:40.358Z,18.09
2018-03-29T05:43:40.595Z,18.13
2018-03-29T05:44:40.359Z,18.13
2018-03-29T05:45:40.396Z,18.13
2018-03-29T05:46:40.418Z,18.07
2018-03-29T05:47:40.446Z,18.10
2018-03-29T05:48:40.481Z,18.07
2018-03-29T05:49:40.542Z,18.07
2018-03-29T05:50:40.848Z,18.13
2018-03-29T05:51:40.565Z,18.07
2018-03-29T05:52:40.591Z,18.11
2018-03-29T05:53:40.811Z,18.13
2018-03-29T05:54:40.644Z,18.10
2018-03-29T05:55:40.678Z,18.14
2018-03-29T05:56:40.701Z,18.14
2018-03-29T05:57:41.041Z,18.11
2018-03-29T05:58:40.815Z,18.07
2018-03-29T05:59:40.788Z,18.07
2018-03-29T06:00:40.840Z,18.09
2018-03-29T06:01:40.848Z,18.07
2018-03-29T06:02:40.987Z,18.07
2018-03-29T06:03:40.907Z,18.13
2018-03-29T06:04:41.209Z,18.07
2018-03-29T06:05:40.971Z,18.11
2018-03-29T06:06:40.986Z,18.10
2018-03-29T06:07:41.065Z,18.05
2018-03-29T06:08:41.046Z,18.13
2018-03-29T06:09:41.079Z,18.16
2018-03-29T06:10:41.350Z,18.14
2018-03-29T06:11:41.131Z,18.16
2018-03-29T06:12:41.164Z,18.11
2018-03-29T06:13:41.200Z,18.17
2018-03-29T06:14:41.218Z,18.13
2018-03-29T06:15:41.248Z,18.10
2018-03-29T06:16:41.521Z,18.16
2018-03-29T06:17:41.312Z,18.17
2018-03-29T06:18:41.382Z,18.19
2018-03-29T06:19:41.360Z,18.19
2018-03-29T06:20:41.393Z,18.16
2018-03-29T06:21:41.422Z,18.17
2018-03-29T06:22:41.694Z,18.14
2018-03-29T06:23:41.483Z,18.16
2018-03-29T06:24:41.516Z,18.17
2018-03-29T06:25:41.529Z,18.16
2018-03-29T06:26:41.561Z,18.19
2018-03-29T06:27:41.586Z,18.17
2018-03-29T06:28:41.871Z,18.16
2018-03-29T06:29:41.652Z,18.17
2018-03-29T06:30:41.681Z,18.17
2018-03-29T06:31:41.699Z,18.16
2018-03-29T06:32:41.744Z,18.16
2018-03-29T06:33:41.778Z,18.26
2018-03-29T06:34:42.108Z,18.19
2018-03-29T06:35:41.821Z,18.20
2018-03-29T06:36:41.869Z,18.19
2018-03-29T06:37:41.883Z,18.29
2018-03-29T06:38:42.011Z,18.16
2018-03-29T06:39:41.938Z,18.25
2018-03-29T06:40:42.262Z,18.29
2018-03-29T06:41:41.987Z,18.25
2018-03-29T06:42:42.015Z,18.26
2018-03-29T06:43:42.044Z,18.26
2018-03-29T06:44:42.072Z,18.21
2018-03-29T06:45:42.113Z,18.25
2018-03-29T06:46:42.443Z,18.23
2018-03-29T06:47:42.163Z,18.28
2018-03-29T06:48:42.218Z,18.21
2018-03-29T06:49:42.220Z,18.25
2018-03-29T06:50:42.272Z,18.26
2018-03-29T06:51:42.276Z,18.28
2018-03-29T06:52:42.557Z,18.28
2018-03-29T06:53:42.342Z,18.28
2018-03-29T06:54:42.421Z,18.29
2018-03-29T06:55:42.412Z,18.28
2018-03-29T06:56:42.417Z,18.25
2018-03-29T06:57:42.449Z,18.28
2018-03-29T06:58:42.731Z,18.29
2018-03-29T06:59:42.502Z,18.21
2018-03-29T07:00:42.540Z,18.25
2018-03-29T07:01:42.559Z,18.21
2018-03-29T07:02:42.599Z,18.29
2018-03-29T07:03:42.619Z,18.29
2018-03-29T07:04:42.896Z,18.28
2018-03-29T07:05:42.676Z,18.31
2018-03-29T07:06:42.804Z,18.34
2018-03-29T07:07:42.735Z,18.31
2018-03-29T07:08:42.761Z,18.31
2018-03-29T07:09:42.815Z,18.31
2018-03-29T07:10:43.072Z,18.28
2018-03-29T07:11:42.845Z,18.31
2018-03-29T07:12:42.878Z,18.34
2018-03-29T07:13:42.910Z,18.31
2018-03-29T07:14:42.941Z,18.31
2018-03-29T07:15:42.965Z,18.23
2018-03-29T07:16:43.294Z,18.28
2018-03-29T07:17:43.029Z,18.28
2018-03-29T07:18:43.096Z,18.34
2018-03-29T07:19:43.075Z,18.36
2018-03-29T07:20:43.132Z,18.42
2018-03-29T07:21:43.152Z,18.35
2018-03-29T07:22:43.190Z,18.47
2018-03-29T07:23:43.448Z,18.39
2018-03-29T07:24:43.219Z,18.38
2018-03-29T07:25:43.256Z,18.42
2018-03-29T07:26:43.296Z,18.47
2018-03-29T07:27:43.410Z,18.47
2018-03-29T07:28:43.341Z,18.42
2018-03-29T07:29:43.365Z,18.42
2018-03-29T07:30:43.696Z,18.46
2018-03-29T07:31:43.433Z,18.35
2018-03-29T07:32:43.459Z,18.46
2018-03-29T07:33:43.477Z,18.39
2018-03-29T07:34:43.512Z,18.39
2018-03-29T07:35:43.538Z,18.39
2018-03-29T07:36:43.585Z,18.53
2018-03-29T07:37:43.909Z,18.50
2018-03-29T07:38:43.629Z,18.51
2018-03-29T07:39:43.660Z,18.44
2018-03-29T07:40:43.728Z,18.50
2018-03-29T07:41:43.713Z,18.42
2018-03-29T07:42:43.736Z,18.47
2018-03-29T07:43:43.769Z,18.47
2018-03-29T07:44:44.104Z,18.56
2018-03-29T07:45:43.828Z,18.47
2018-03-29T07:46:43.862Z,18.44
2018-03-29T07:47:43.887Z,18.41
2018-03-29T07:48:43.939Z,18.51
2018-03-29T07:49:43.952Z,18.44
2018-03-29T07:50:43.970Z,18.54
2018-03-29T07:51:44.304Z,18.41
2018-03-29T07:52:44.030Z,18.44
2018-03-29T07:53:44.058Z,18.51
2018-03-29T07:54:44.083Z,18.47
2018-03-29T07:55:44.131Z,18.44
2018-03-29T07:56:44.147Z,18.50
2018-03-29T07:57:44.257Z,18.49
2018-03-29T07:58:44.452Z,18.44
2018-03-29T07:59:44.230Z,18.44
2018-03-29T08:00:44.267Z,18.49
2018-03-29T08:01:44.296Z,18.51
2018-03-29T08:02:44.313Z,18.41
2018-03-29T08:03:44.343Z,18.42
2018-03-29T08:04:44.376Z,18.54
2018-03-29T08:05:44.699Z,18.42
2018-03-29T08:06:44.426Z,18.47
2018-03-29T08:07:44.459Z,18.50
2018-03-29T08:08:44.493Z,18.49
2018-03-29T08:09:44.515Z,18.49
2018-03-29T08:10:44.550Z,18.47
2018-03-29T08:11:44.574Z,18.46
2018-03-29T08:12:44.913Z,18.44
2018-03-29T08:13:44.699Z,18.47
2018-03-29T08:14:44.674Z,18.39
2018-03-29T08:15:44.686Z,18.50
2018-03-29T08:16:44.722Z,18.51
2018-03-29T08:17:44.762Z,18.59
2018-03-29T08:18:44.788Z,18.50
2018-03-29T08:19:45.132Z,18.46
2018-03-29T08:20:44.838Z,18.50
2018-03-29T08:21:44.874Z,18.38
2018-03-29T08:22:44.890Z,18.49
2018-03-29T08:23:44.972Z,18.51
2018-03-29T08:24:44.995Z,18.51
2018-03-29T08:25:44.987Z,18.47
2018-03-29T08:26:45.253Z,18.49
2018-03-29T08:27:45.038Z,18.46
2018-03-29T08:28:45.066Z,18.41
2018-03-29T08:29:45.095Z,18.46
2018-03-29T08:30:45.122Z,18.42
2018-03-29T08:31:45.151Z,18.49
2018-03-29T08:32:45.181Z,18.46
2018-03-29T08:33:45.456Z,18.49
2018-03-29T08:34:45.246Z,18.49
2018-03-29T08:35:45.263Z,18.49
2018-03-29T08:36:45.290Z,18.42
2018-03-29T08:37:45.342Z,18.42
2018-03-29T08:38:45.364Z,18.50
2018-03-29T08:39:45.684Z,18.57
2018-03-29T08:40:45.408Z,18.47
2018-03-29T08:41:45.482Z,18.49
2018-03-29T08:42:45.468Z,18.50
2018-03-29T08:43:45.511Z,18.46
2018-03-29T08:44:45.533Z,18.44
2018-03-29T08:45:45.804Z,18.44
2018-03-29T08:46:45.613Z,18.51
2018-03-29T08:47:45.640Z,18.53
2018-03-29T08:48:45.640Z,18.46
2018-03-29T08:49:45.673Z,18.59
2018-03-29T08:50:45.705Z,18.46
2018-03-29T08:51:46.036Z,18.46
2018-03-29T08:52:45.756Z,18.54
2018-03-29T08:53:45.789Z,18.60
2018-03-29T08:54:45.814Z,18.56
2018-03-29T08:55:45.884Z,18.62
2018-03-29T08:56:45.891Z,18.49
2018-03-29T08:57:46.158Z,18.62
2018-03-29T08:58:45.924Z,18.62
2018-03-29T08:59:45.960Z,18.54
2018-03-29T09:00:45.998Z,18.62
2018-03-29T09:01:46.020Z,18.51
2018-03-29T09:02:46.047Z,18.56
2018-03-29T09:03:46.371Z,18.56
2018-03-29T09:04:46.106Z,18.64
2018-03-29T09:05:46.127Z,18.57
2018-03-29T09:06:46.158Z,18.62
2018-03-29T09:07:46.185Z,18.62
2018-03-29T09:08:46.220Z,18.51
2018-03-29T09:09:46.554Z,18.59
2018-03-29T09:10:46.275Z,18.57
2018-03-29T09:11:46.301Z,18.62
2018-03-29T09:12:46.337Z,18.62
2018-03-29T09:13:46.363Z,18.64
2018-03-29T09:14:46.387Z,18.65
2018-03-29T09:15:46.725Z,18.54
2018-03-29T09:16:46.447Z,18.66
2018-03-29T09:17:46.477Z,18.53
2018-03-29T09:18:46.543Z,18.64
2018-03-29T09:19:46.539Z,18.68
2018-03-29T09:20:46.569Z,18.64
2018-03-29T09:21:46.912Z,18.68
2018-03-29T09:22:46.636Z,18.68
2018-03-29T09:23:46.898Z,18.74
2018-03-29T09:24:46.720Z,18.59
2018-03-29T09:25:46.715Z,18.66
2018-03-29T09:26:46.742Z,18.66
2018-03-29T09:27:47.094Z,18.69
2018-03-29T09:28:46.799Z,18.65
2018-03-29T09:29:46.834Z,18.71
2018-03-29T09:30:46.868Z,18.66
2018-03-29T09:31:46.911Z,18.72
2018-03-29T09:32:46.994Z,18.74
2018-03-29T09:33:47.254Z,18.72
2018-03-29T09:34:46.996Z,18.78
2018-03-29T09:35:47.001Z,18.76
2018-03-29T09:36:47.033Z,18.82
2018-03-29T09:37:47.077Z,18.86
2018-03-29T09:38:47.099Z,18.86
2018-03-29T09:39:47.445Z,18.84
2018-03-29T09:40:47.145Z,18.82
2018-03-29T09:41:47.267Z,18.75
2018-03-29T09:42:47.207Z,18.79
2018-03-29T09:43:47.275Z,18.89
2018-03-29T09:44:47.277Z,18.90
2018-03-29T09:45:47.600Z,18.87
2018-03-29T09:46:47.324Z,18.87
2018-03-29T09:47:47.349Z,18.90
2018-03-29T09:48:47.582Z,18.82
2018-03-29T09:49:47.416Z,18.79
2018-03-29T09:50:47.428Z,18.87
2018-03-29T09:51:48.310Z,18.87
2018-03-29T09:52:47.742Z,18.96
2018-03-29T09:53:47.522Z,18.91
2018-03-29T09:54:47.551Z,18.93
2018-03-29T09:55:47.594Z,18.97
2018-03-29T09:56:47.618Z,18.86
2018-03-29T09:57:47.646Z,18.87
2018-03-29T09:58:47.723Z,18.91
2018-03-29T09:59:47.962Z,18.96
2018-03-29T10:00:47.734Z,18.87
2018-03-29T10:01:47.780Z,18.78
2018-03-29T10:02:47.788Z,18.84
2018-03-29T10:03:47.868Z,18.96
2018-03-29T10:04:47.997Z,19.06
2018-03-29T10:05:47.871Z,18.93
2018-03-29T10:06:48.196Z,18.96
2018-03-29T10:07:47.943Z,18.91
2018-03-29T10:08:47.972Z,18.91
2018-03-29T10:09:47.987Z,18.96
2018-03-29T10:10:48.019Z,18.93
2018-03-29T10:11:48.054Z,18.93
2018-03-29T10:12:48.073Z,18.87
2018-03-29T10:13:48.359Z,18.94
2018-03-29T10:14:48.154Z,18.93
2018-03-29T10:15:48.171Z,18.87
2018-03-29T10:16:48.199Z,18.94
2018-03-29T10:17:48.225Z,18.93
2018-03-29T10:18:48.276Z,18.96
2018-03-29T10:19:48.277Z,18.97
2018-03-29T10:20:48.619Z,19.02
2018-03-29T10:21:48.337Z,18.96
2018-03-29T10:22:48.370Z,18.99
2018-03-29T10:23:48.397Z,19.05
2018-03-29T10:24:48.424Z,18.99
2018-03-29T10:25:48.459Z,19.05
2018-03-29T10:26:48.484Z,18.97
2018-03-29T10:27:48.784Z,19.06
2018-03-29T10:28:48.542Z,19.02
2018-03-29T10:29:48.585Z,18.99
2018-03-29T10:30:48.601Z,19.09
2018-03-29T10:31:48.692Z,19.10
2018-03-29T10:32:48.662Z,19.02
2018-03-29T10:33:48.690Z,19.07
2018-03-29T10:34:48.975Z,19.10
2018-03-29T10:35:48.805Z,19.09
2018-03-29T10:36:48.779Z,19.12
2018-03-29T10:37:48.822Z,19.07
2018-03-29T10:38:48.836Z,19.07
2018-03-29T10:39:48.884Z,19.07
2018-03-29T10:40:48.913Z,19.10
2018-03-29T10:41:49.230Z,19.07
2018-03-29T10:42:48.955Z,19.07
2018-03-29T10:43:48.989Z,19.07
2018-03-29T10:44:49.018Z,19.06
2018-03-29T10:45:49.053Z,19.07
2018-03-29T10:46:49.069Z,19.16
2018-03-29T10:47:49.171Z,19.09
2018-03-29T10:48:49.406Z,19.09
2018-03-29T10:49:49.170Z,19.13
2018-03-29T10:50:49.192Z,19.12
2018-03-29T10:51:49.219Z,19.12
2018-03-29T10:52:49.252Z,19.12
2018-03-29T10:53:49.278Z,19.12
2018-03-29T10:54:49.313Z,19.16
2018-03-29T10:55:49.639Z,19.17
2018-03-29T10:56:49.387Z,19.20
2018-03-29T10:57:49.409Z,19.20
2018-03-29T10:58:49.459Z,19.20
2018-03-29T10:59:49.477Z,19.25
2018-03-29T11:00:49.529Z,19.28
2018-03-29T11:01:49.527Z,19.30
2018-03-29T11:02:50.002Z,19.24
2018-03-29T11:03:49.587Z,19.24
2018-03-29T11:04:49.660Z,19.31
2018-03-29T11:05:49.671Z,19.30
2018-03-29T11:06:49.694Z,19.28
2018-03-29T11:07:49.705Z,19.31
2018-03-29T11:08:49.740Z,19.28
2018-03-29T11:09:50.053Z,19.31
2018-03-29T11:10:49.787Z,19.30
2018-03-29T11:11:49.812Z,19.38
2018-03-29T11:12:49.841Z,19.24
2018-03-29T11:13:49.871Z,19.35
2018-03-29T11:14:49.900Z,19.32
2018-03-29T11:15:50.245Z,19.34
2018-03-29T11:16:50.011Z,19.32
2018-03-29T11:17:50.142Z,19.35
2018-03-29T11:18:50.039Z,19.35
2018-03-29T11:19:50.051Z,19.38
2018-03-29T11:20:50.086Z,19.39
2018-03-29T11:21:50.411Z,19.32
2018-03-29T11:22:50.137Z,19.38
2018-03-29T11:23:50.178Z,19.39
2018-03-29T11:24:50.198Z,19.39
2018-03-29T11:25:50.248Z,19.40
2018-03-29T11:26:50.295Z,19.49
2018-03-29T11:27:50.647Z,19.46
2018-03-29T11:28:50.318Z,19.46
2018-03-29T11:29:50.543Z,19.47
2018-03-29T11:30:50.437Z,19.42
2018-03-29T11:31:50.415Z,19.46
2018-03-29T11:32:50.437Z,19.49
2018-03-29T11:33:50.772Z,19.55
2018-03-29T11:34:50.503Z,19.43
2018-03-29T11:35:50.543Z,19.52
2018-03-29T11:36:50.571Z,19.58
2018-03-29T11:37:50.614Z,19.52
2018-03-29T11:38:50.632Z,19.52
2018-03-29T11:39:50.649Z,19.45
2018-03-29T11:40:50.957Z,19.61
2018-03-29T11:41:50.710Z,19.50
2018-03-29T11:42:50.748Z,19.65
2018-03-29T11:43:50.780Z,19.60
2018-03-29T11:44:50.798Z,19.62
2018-03-29T11:45:50.841Z,19.60
2018-03-29T11:46:50.856Z,19.68
2018-03-29T11:47:50.897Z,19.68
2018-03-29T11:48:51.026Z,19.71
2018-03-29T11:49:50.959Z,19.71
2018-03-29T11:50:50.993Z,19.64
2018-03-29T11:51:51.078Z,19.68
2018-03-29T11:52:51.373Z,19.67
2018-03-29T11:53:51.074Z,19.71
2018-03-29T11:54:51.148Z,19.65
2018-03-29T11:55:51.147Z,19.71
2018-03-29T11:56:51.282Z,19.67
2018-03-29T11:57:51.200Z,19.64
2018-03-29T11:58:51.245Z,19.71
2018-03-29T11:59:51.332Z,19.75
2018-03-29T12:00:51.335Z,19.70
2018-03-29T12:01:51.394Z,19.67
2018-03-29T12:02:51.360Z,19.79
2018-03-29T12:03:51.378Z,19.72
2018-03-29T12:04:51.715Z,19.70
2018-03-29T12:05:51.435Z,19.70
2018-03-29T12:06:51.516Z,19.79
2018-03-29T12:07:51.501Z,19.78
2018-03-29T12:08:51.518Z,19.72
2018-03-29T12:09:51.556Z,19.82
2018-03-29T12:10:51.833Z,19.75
2018-03-29T12:11:51.694Z,19.75
2018-03-29T12:12:51.677Z,19.75
2018-03-29T12:13:51.699Z,19.78
2018-03-29T12:14:51.740Z,19.82
2018-03-29T12:15:51.728Z,19.83
2018-03-29T12:16:52.008Z,19.78
2018-03-29T12:17:51.796Z,19.80
2018-03-29T12:18:51.827Z,19.82
2018-03-29T12:19:51.919Z,19.82
2018-03-29T12:20:51.880Z,19.85
2018-03-29T12:21:51.910Z,19.76
2018-03-29T12:22:51.944Z,19.78
2018-03-29T12:23:52.286Z,19.78
2018-03-29T12:24:52.021Z,19.89
2018-03-29T12:25:52.081Z,19.82
2018-03-29T12:26:52.064Z,19.82
2018-03-29T12:27:52.098Z,19.82
2018-03-29T12:28:52.136Z,19.82
2018-03-29T12:29:52.169Z,19.83
2018-03-29T12:30:52.517Z,19.86
2018-03-29T12:31:52.265Z,19.90
2018-03-29T12:32:52.270Z,19.87
2018-03-29T12:33:52.288Z,19.94
2018-03-29T12:34:52.405Z,19.92
2018-03-29T12:35:52.342Z,19.86
2018-03-29T12:36:52.365Z,19.94
2018-03-29T12:37:52.720Z,19.94
2018-03-29T12:38:52.430Z,19.92
2018-03-29T12:39:52.472Z,19.90
2018-03-29T12:40:52.490Z,19.94
2018-03-29T12:41:52.534Z,19.95
2018-03-29T12:42:52.548Z,19.94
2018-03-29T12:43:52.587Z,19.87
2018-03-29T12:44:52.929Z,19.92
2018-03-29T12:45:52.645Z,19.95
2018-03-29T12:46:52.670Z,19.94
2018-03-29T12:47:52.717Z,19.92
2018-03-29T12:48:52.805Z,19.94
2018-03-29T12:49:52.762Z,19.94
2018-03-29T12:50:52.795Z,19.90
2018-03-29T12:51:53.125Z,19.94
2018-03-29T12:52:52.857Z,19.92